Airport View

Enter AWOS ICAO identifier for current METAR.

ex. KFNL

CYAZ 210100Z 26006KT 15SM FEW240 17/12 A3011 RMK CI1 CI TR LAST STFD OBS/NEXT 211300UTC SLP196 DENSITY ALT 200FT

21 Sep 2019 01:18

Other Area AWOS: CWEB - CYQQ - CYBL - CWGT

TAF CYAZ 201741Z 2018/2101 VRB03KT P6SM SCT020 TEMPO 2018/2021 SCT007 BKN020 BECMG 2018/2020 20006KT RMK NXT FCST WILL BE ISSUED AT 211445Z